createdAt,value
2022-10-21T00:01:09.825Z,932.50
2022-10-21T00:03:38.357Z,937.77
2022-10-21T00:06:07.049Z,929.13
2022-10-21T00:08:36.040Z,943.17
2022-10-21T00:11:06.393Z,912.43
2022-10-21T00:13:35.857Z,916.63
2022-10-21T00:16:05.676Z,933.50
2022-10-21T00:18:37.475Z,940.53
2022-10-21T00:21:09.669Z,950.57
2022-10-21T00:23:37.946Z,943.73
2022-10-21T00:26:06.587Z,921.77
2022-10-21T00:28:34.810Z,915.40
2022-10-21T00:31:03.494Z,915.77
2022-10-21T00:33:31.601Z,942.47
2022-10-21T00:36:02.993Z,932.47
2022-10-21T00:38:31.947Z,917.23
2022-10-21T00:41:00.435Z,932.50
2022-10-21T00:43:29.913Z,940.87
2022-10-21T00:46:00.784Z,916.57
2022-10-21T00:48:32.967Z,911.43
2022-10-21T00:51:06.566Z,910.97
2022-10-21T00:53:37.033Z,926.60
2022-10-21T00:56:09.885Z,928.77
2022-10-21T00:58:41.250Z,904.40
2022-10-21T01:01:10.252Z,886.83
2022-10-21T01:03:38.544Z,909.73
2022-10-21T01:06:12.114Z,905.13
2022-10-21T01:08:40.681Z,909.00
2022-10-21T01:11:13.601Z,926.20
2022-10-21T01:13:50.832Z,894.47
2022-10-21T01:16:22.552Z,895.13
2022-10-21T01:18:57.844Z,921.00
2022-10-21T01:21:32.779Z,917.27
2022-10-21T01:24:31.777Z,894.37
2022-10-21T01:27:09.100Z,914.00
2022-10-21T01:30:10.735Z,928.90
2022-10-21T01:33:19.307Z,930.13
2022-10-21T01:35:51.223Z,910.53
2022-10-21T01:38:24.282Z,916.93
2022-10-21T01:40:58.066Z,943.43
2022-10-21T01:43:33.335Z,921.17
2022-10-21T01:46:03.017Z,944.13
2022-10-21T01:48:34.973Z,935.13
2022-10-21T01:51:05.804Z,908.37
2022-10-21T01:53:39.992Z,921.60
2022-10-21T01:56:09.548Z,921.00
2022-10-21T01:58:39.030Z,921.73
2022-10-21T02:01:08.628Z,933.10
2022-10-21T02:03:40.375Z,924.23
2022-10-21T02:06:08.626Z,937.07
2022-10-21T02:08:36.914Z,939.73
2022-10-21T02:11:07.505Z,927.80
2022-10-21T02:13:39.438Z,906.03
2022-10-21T02:16:10.673Z,911.93
2022-10-21T02:18:40.405Z,899.30
2022-10-21T02:21:10.721Z,909.33
2022-10-21T02:23:41.509Z,926.53
2022-10-21T02:26:10.129Z,925.00
2022-10-21T02:31:21.036Z,922.90
2022-10-21T02:34:01.290Z,915.73
2022-10-21T02:36:35.262Z,899.90
2022-10-21T02:39:08.387Z,896.93
2022-10-21T02:41:39.486Z,886.23
2022-10-21T02:44:08.212Z,896.30
2022-10-21T02:46:38.794Z,895.40
2022-10-21T02:49:08.633Z,900.70
2022-10-21T02:51:37.121Z,896.33
2022-10-21T02:54:05.385Z,901.33
2022-10-21T02:56:33.695Z,908.07
2022-10-21T02:59:01.883Z,893.03
2022-10-21T03:01:30.187Z,880.40
2022-10-21T03:03:58.414Z,915.47
2022-10-21T03:06:31.229Z,897.30
2022-10-21T03:09:00.822Z,882.10
2022-10-21T03:11:29.032Z,883.43
2022-10-21T03:13:57.366Z,904.77
2022-10-21T03:16:25.719Z,916.23
2022-10-21T03:18:53.930Z,876.67
2022-10-21T03:21:22.217Z,895.70
2022-10-21T03:23:54.153Z,879.20
2022-10-21T03:26:25.541Z,893.97
2022-10-21T03:28:53.778Z,878.33
2022-10-21T03:31:22.172Z,900.33
2022-10-21T03:33:50.412Z,906.83
2022-10-21T03:36:18.828Z,921.37
2022-10-21T03:38:47.028Z,893.10
2022-10-21T03:41:16.894Z,873.07
2022-10-21T03:43:45.068Z,895.97
2022-10-21T03:46:13.371Z,893.50
2022-10-21T03:48:41.586Z,881.60
2022-10-21T03:51:09.819Z,881.23
2022-10-21T03:53:43.368Z,873.33
2022-10-21T03:56:12.240Z,903.37
2022-10-21T03:58:42.493Z,884.47
2022-10-21T04:01:13.645Z,903.00
2022-10-21T04:03:42.317Z,902.77
2022-10-21T04:06:10.508Z,911.50
2022-10-21T04:08:38.796Z,916.10
2022-10-21T04:11:07.102Z,916.60
2022-10-21T04:13:35.390Z,907.80
2022-10-21T04:16:07.401Z,913.63
2022-10-21T04:18:35.523Z,901.47
2022-10-21T04:21:03.804Z,886.90
2022-10-21T04:23:31.965Z,867.70
2022-10-21T04:26:00.661Z,898.93
2022-10-21T04:28:28.850Z,884.23
2022-10-21T04:30:57.186Z,897.80
2022-10-21T04:33:26.812Z,893.27
2022-10-21T04:35:55.197Z,901.33
2022-10-21T04:38:23.542Z,871.47
2022-10-21T04:40:57.079Z,880.93
2022-10-21T04:43:25.421Z,907.57
2022-10-21T04:45:55.569Z,874.10
2022-10-21T04:48:24.331Z,886.67
2022-10-21T04:51:02.673Z,872.93
2022-10-21T04:53:30.937Z,900.70
2022-10-21T04:56:04.846Z,917.90
2022-10-21T04:58:33.390Z,887.10
2022-10-21T05:01:02.058Z,884.20
2022-10-21T05:03:56.514Z,884.10
2022-10-21T05:06:27.717Z,878.33
2022-10-21T05:09:11.245Z,888.27
2022-10-21T05:11:42.315Z,889.80
2022-10-21T05:14:10.908Z,874.93
2022-10-21T05:16:39.442Z,890.30
2022-10-21T05:19:07.979Z,897.87
2022-10-21T05:24:10.608Z,898.80
2022-10-21T05:26:38.873Z,905.23
2022-10-21T05:29:07.017Z,897.17
2022-10-21T05:31:35.153Z,930.30
2022-10-21T05:37:14.487Z,896.73
2022-10-21T05:39:49.692Z,900.13
2022-10-21T05:42:55.315Z,895.30
2022-10-21T05:45:23.690Z,889.13
2022-10-21T05:47:54.341Z,910.67
2022-10-21T05:50:26.561Z,903.97
2022-10-21T05:53:01.002Z,924.73
2022-10-21T05:55:29.910Z,915.20
2022-10-21T05:57:59.394Z,922.90
2022-10-21T06:00:27.749Z,898.97
2022-10-21T06:02:57.832Z,896.53
2022-10-21T06:05:29.474Z,904.13
2022-10-21T06:08:01.289Z,885.13
2022-10-21T06:10:29.645Z,904.97
2022-10-21T06:12:57.790Z,897.07
2022-10-21T06:15:25.897Z,906.97
2022-10-21T06:17:53.977Z,913.03
2022-10-21T06:20:21.988Z,895.87
2022-10-21T06:22:50.316Z,911.77
2022-10-21T06:25:21.434Z,925.97
2022-10-21T06:27:49.945Z,900.53
2022-10-21T06:30:18.308Z,894.23
2022-10-21T06:32:46.244Z,907.93
2022-10-21T06:35:14.440Z,906.87
2022-10-21T06:37:42.463Z,889.60
2022-10-21T06:40:11.609Z,914.03
2022-10-21T06:42:41.338Z,908.60
2022-10-21T06:45:09.821Z,909.83
2022-10-21T06:47:38.160Z,874.03
2022-10-21T06:50:07.902Z,894.50
2022-10-21T06:52:36.065Z,906.03
2022-10-21T06:55:04.245Z,894.23
2022-10-21T06:57:32.332Z,900.43
2022-10-21T07:00:01.812Z,880.97
2022-10-21T07:02:30.311Z,878.33
2022-10-21T07:04:59.045Z,888.60
2022-10-21T07:07:27.199Z,893.93
2022-10-21T07:09:57.721Z,898.73
2022-10-21T07:12:26.191Z,884.03
2022-10-21T07:14:54.835Z,901.10
2022-10-21T07:17:24.493Z,896.03
2022-10-21T07:19:52.673Z,879.10
2022-10-21T07:22:20.713Z,872.30
2022-10-21T07:24:48.783Z,873.60
2022-10-21T07:27:16.735Z,905.43
2022-10-21T07:29:44.758Z,884.77
2022-10-21T07:32:12.806Z,896.47
2022-10-21T07:34:42.296Z,892.83
2022-10-21T07:37:10.342Z,878.10
2022-10-21T07:39:38.438Z,887.47
2022-10-21T07:42:06.442Z,884.90
2022-10-21T07:44:34.471Z,897.23
2022-10-21T07:47:02.506Z,894.07
2022-10-21T07:49:30.521Z,879.57
2022-10-21T07:52:01.095Z,887.50
2022-10-21T07:54:29.449Z,876.40
2022-10-21T07:56:58.518Z,901.47
2022-10-21T07:59:26.572Z,886.33
2022-10-21T08:01:54.717Z,871.57
2022-10-21T08:04:24.907Z,872.53
2022-10-21T08:06:53.061Z,876.03
2022-10-21T08:09:22.662Z,876.90
2022-10-21T08:11:50.665Z,900.40
2022-10-21T08:14:19.168Z,896.63
2022-10-21T08:16:47.252Z,878.13
2022-10-21T08:19:19.873Z,883.20
2022-10-21T08:21:48.112Z,884.43
2022-10-21T08:24:16.246Z,897.57
2022-10-21T08:26:45.752Z,863.97
2022-10-21T08:29:13.855Z,885.63
2022-10-21T08:31:42.010Z,878.70
2022-10-21T08:34:10.287Z,903.40
2022-10-21T08:36:39.185Z,867.47
2022-10-21T08:39:07.795Z,882.13
2022-10-21T08:41:58.455Z,893.87
2022-10-21T08:44:31.671Z,898.33
2022-10-21T08:47:05.441Z,913.20
2022-10-21T08:49:44.171Z,924.20
2022-10-21T08:52:14.714Z,888.27
2022-10-21T08:54:45.080Z,879.80
2022-10-21T08:57:14.958Z,876.10
2022-10-21T08:59:43.215Z,886.77
2022-10-21T09:02:23.658Z,908.00
2022-10-21T09:04:56.411Z,890.77
2022-10-21T09:07:29.006Z,872.70
2022-10-21T09:10:00.481Z,885.73
2022-10-21T09:12:32.612Z,883.90
2022-10-21T09:15:18.397Z,884.50
2022-10-21T09:18:01.439Z,904.53
2022-10-21T09:20:43.986Z,886.33
2022-10-21T09:26:02.291Z,904.17
2022-10-21T09:28:32.664Z,889.63
2022-10-21T09:31:02.240Z,904.03
2022-10-21T09:33:32.814Z,898.17
2022-10-21T09:36:04.300Z,901.97
2022-10-21T09:38:44.041Z,903.90
2022-10-21T09:41:16.306Z,894.87
2022-10-21T09:43:46.055Z,888.73
2022-10-21T09:46:14.779Z,903.43
2022-10-21T09:49:14.359Z,900.43
2022-10-21T09:51:35.564Z,900.43
2022-10-21T09:54:09.383Z,889.83
2022-10-21T09:56:40.911Z,853.33
2022-10-21T09:59:12.629Z,860.30
2022-10-21T10:01:42.016Z,855.47
2022-10-21T10:04:14.562Z,839.63
2022-10-21T10:06:44.565Z,840.07
2022-10-21T10:09:16.382Z,845.00
2022-10-21T10:11:51.012Z,844.37
2022-10-21T10:14:27.295Z,837.87
2022-10-21T10:16:55.851Z,829.77
2022-10-21T10:19:25.696Z,822.80
2022-10-21T10:22:12.347Z,827.97
2022-10-21T10:24:41.371Z,825.00
2022-10-21T10:27:14.631Z,806.07
2022-10-21T10:29:50.857Z,822.57
2022-10-21T10:32:18.930Z,824.73
2022-10-21T10:34:53.139Z,798.43
2022-10-21T10:37:23.195Z,816.80
2022-10-21T10:39:55.642Z,817.57
2022-10-21T10:42:25.862Z,833.77
2022-10-21T10:44:57.151Z,861.13
2022-10-21T10:47:28.478Z,855.93
2022-10-21T10:49:56.531Z,850.70
2022-10-21T10:52:26.225Z,858.50
2022-10-21T10:55:17.850Z,866.03
2022-10-21T10:57:59.018Z,835.93
2022-10-21T11:00:38.510Z,863.97
2022-10-21T11:03:08.762Z,861.77
2022-10-21T11:05:38.911Z,863.07
2022-10-21T11:08:11.814Z,874.17
2022-10-21T11:10:43.603Z,910.33
2022-10-21T11:13:14.683Z,914.93
2022-10-21T11:15:55.809Z,942.10
2022-10-21T11:18:28.965Z,916.87
2022-10-21T11:21:07.406Z,947.90
2022-10-21T11:23:48.067Z,956.80
2022-10-21T11:26:21.965Z,930.07
2022-10-21T11:28:54.928Z,945.43
2022-10-21T11:31:29.362Z,969.70
2022-10-21T11:34:00.080Z,952.60
2022-10-21T11:36:33.609Z,972.83
2022-10-21T11:39:21.252Z,1012.70
2022-10-21T11:41:52.862Z,945.83
2022-10-21T11:44:29.139Z,955.47
2022-10-21T11:47:06.639Z,946.13
2022-10-21T11:49:43.464Z,937.83
2022-10-21T11:52:18.807Z,937.10
2022-10-21T11:55:15.896Z,883.87
2022-10-21T11:57:51.212Z,894.77
2022-10-21T12:00:21.267Z,901.13
2022-10-21T12:03:06.990Z,839.90
2022-10-21T12:05:37.181Z,743.00
2022-10-21T12:08:11.928Z,706.90
2022-10-21T12:10:45.412Z,637.77
2022-10-21T12:13:16.935Z,540.20
2022-10-21T12:15:48.133Z,435.70
2022-10-21T12:18:20.869Z,519.43
2022-10-21T12:20:50.737Z,518.20
2022-10-21T12:23:21.437Z,467.03
2022-10-21T12:25:57.667Z,509.23
2022-10-21T12:28:30.882Z,453.13
2022-10-21T12:31:02.847Z,503.30
2022-10-21T12:33:37.756Z,513.53
2022-10-21T12:36:38.626Z,550.40
2022-10-21T12:39:07.360Z,535.97
2022-10-21T12:41:36.521Z,508.67
2022-10-21T12:44:23.662Z,534.67
2022-10-21T12:46:53.655Z,479.57
2022-10-21T12:49:33.790Z,495.00
2022-10-21T12:52:09.109Z,537.90
2022-10-21T12:54:43.363Z,489.03
2022-10-21T12:57:13.207Z,485.03
2022-10-21T12:59:42.880Z,480.80
2022-10-21T13:02:25.676Z,463.33
2022-10-21T13:04:57.069Z,489.70
2022-10-21T13:07:33.060Z,476.23
2022-10-21T13:10:31.485Z,445.00
2022-10-21T13:13:30.705Z,528.30
2022-10-21T13:15:59.653Z,518.03
2022-10-21T13:18:56.457Z,480.47
2022-10-21T13:21:39.026Z,501.27
2022-10-21T13:24:14.456Z,475.20
2022-10-21T13:26:45.015Z,476.30
2022-10-21T13:29:24.232Z,419.07
2022-10-21T13:32:30.877Z,374.93
2022-10-21T13:35:32.072Z,477.47
2022-10-21T13:38:04.540Z,475.23
2022-10-21T13:40:38.066Z,414.23
2022-10-21T13:43:09.608Z,433.17
2022-10-21T13:48:15.729Z,431.43
2022-10-21T13:50:45.689Z,417.40
2022-10-21T13:53:32.968Z,456.60
2022-10-21T13:56:02.782Z,494.10
2022-10-21T13:58:38.926Z,501.00
2022-10-21T14:01:12.052Z,544.07
2022-10-21T14:03:42.135Z,515.40
2022-10-21T14:06:11.424Z,492.20
2022-10-21T14:08:42.990Z,492.57
2022-10-21T14:11:15.590Z,510.57
2022-10-21T14:13:43.782Z,526.33
2022-10-21T14:16:13.934Z,515.97
2022-10-21T14:18:46.583Z,559.27
2022-10-21T14:21:17.491Z,568.00
2022-10-21T14:23:47.653Z,549.03
2022-10-21T14:26:15.818Z,560.57
2022-10-21T14:28:44.161Z,512.10
2022-10-21T14:31:14.602Z,571.47
2022-10-21T14:33:45.124Z,542.53
2022-10-21T14:36:16.196Z,570.80
2022-10-21T14:38:53.172Z,586.77
2022-10-21T14:41:23.950Z,556.63
2022-10-21T14:43:52.960Z,585.40
2022-10-21T14:46:21.442Z,587.70
2022-10-21T14:48:52.765Z,598.60
2022-10-21T14:51:22.601Z,612.60
2022-10-21T14:53:55.906Z,575.17
2022-10-21T14:56:30.535Z,639.93
2022-10-21T14:59:00.320Z,628.10
2022-10-21T15:01:28.450Z,641.50
2022-10-21T15:03:58.294Z,607.03
2022-10-21T15:06:27.998Z,595.80
2022-10-21T15:09:08.803Z,619.97
2022-10-21T15:11:39.883Z,649.23
2022-10-21T15:14:31.822Z,604.93
2022-10-21T15:17:03.161Z,657.33
2022-10-21T15:19:42.586Z,661.33
2022-10-21T15:22:23.365Z,635.63
2022-10-21T15:24:53.815Z,669.23
2022-10-21T15:27:27.312Z,699.13
2022-10-21T15:29:55.668Z,698.40
2022-10-21T15:32:28.167Z,639.00
2022-10-21T15:34:58.947Z,700.10
2022-10-21T15:37:27.177Z,677.20
2022-10-21T15:39:56.825Z,646.97
2022-10-21T15:42:25.062Z,667.43
2022-10-21T15:44:53.119Z,669.60
2022-10-21T15:47:47.329Z,642.73
2022-10-21T15:50:18.323Z,715.90
2022-10-21T15:52:48.532Z,721.10
2022-10-21T15:55:33.810Z,677.33
2022-10-21T15:58:27.014Z,686.73
2022-10-21T16:01:41.621Z,763.10
2022-10-21T16:04:19.706Z,774.47
2022-10-21T16:06:59.637Z,739.57
2022-10-21T16:10:17.538Z,768.33
2022-10-21T16:13:23.622Z,827.93
2022-10-21T16:15:52.234Z,832.00
2022-10-21T16:18:55.565Z,787.40
2022-10-21T16:21:36.231Z,882.87
2022-10-21T16:24:19.525Z,863.20
2022-10-21T16:27:06.975Z,874.23
2022-10-21T16:29:36.488Z,879.50
2022-10-21T16:32:05.325Z,914.10
2022-10-21T16:34:49.471Z,898.83
2022-10-21T16:37:22.552Z,907.30
2022-10-21T16:39:50.936Z,919.97
2022-10-21T16:42:19.044Z,911.77
2022-10-21T16:45:07.093Z,958.17
2022-10-21T16:47:52.819Z,934.63
2022-10-21T16:50:23.331Z,958.03
2022-10-21T16:52:58.739Z,976.20
2022-10-21T16:55:52.307Z,979.47
2022-10-21T16:58:23.276Z,996.50
2022-10-21T17:00:52.926Z,983.67
2022-10-21T17:03:21.489Z,968.93
2022-10-21T17:05:53.419Z,984.37
2022-10-21T17:08:21.899Z,942.07
2022-10-21T17:10:50.285Z,936.57
2022-10-21T17:13:20.207Z,968.00
2022-10-21T17:15:52.845Z,963.20
2022-10-21T17:18:22.274Z,955.37
2022-10-21T17:20:53.605Z,929.53
2022-10-21T17:23:23.582Z,971.13
2022-10-21T17:25:51.758Z,948.23
2022-10-21T17:28:22.688Z,944.63
2022-10-21T17:31:30.619Z,950.83
2022-10-21T17:34:07.455Z,962.97
2022-10-21T17:37:23.230Z,955.23
2022-10-21T17:39:51.620Z,961.03
2022-10-21T17:42:21.910Z,958.63
2022-10-21T17:44:50.063Z,934.50
2022-10-21T17:47:20.665Z,973.10
2022-10-21T17:50:08.342Z,958.00
2022-10-21T17:52:46.566Z,992.10
2022-10-21T17:55:16.911Z,983.93
2022-10-21T17:57:45.723Z,991.90
2022-10-21T18:00:14.348Z,992.40
2022-10-21T18:02:42.539Z,972.23
2022-10-21T18:05:12.249Z,994.50
2022-10-21T18:07:46.206Z,985.57
2022-10-21T18:10:14.356Z,988.03
2022-10-21T18:12:45.051Z,989.10
2022-10-21T18:15:16.035Z,989.73
2022-10-21T18:17:44.139Z,962.10
2022-10-21T18:20:15.613Z,971.07
2022-10-21T18:22:45.933Z,957.30
2022-10-21T18:25:15.395Z,935.33
2022-10-21T18:30:13.092Z,937.67
2022-10-21T18:32:41.615Z,914.97
2022-10-21T18:35:10.774Z,904.97
2022-10-21T18:37:40.438Z,906.43
2022-10-21T18:40:12.159Z,907.77
2022-10-21T18:42:40.445Z,884.60
2022-10-21T18:45:09.320Z,890.67
2022-10-21T18:47:38.032Z,863.17
2022-10-21T18:50:08.351Z,862.97
2022-10-21T18:52:36.485Z,852.87
2022-10-21T18:57:42.641Z,860.53
2022-10-21T19:00:14.218Z,885.23
2022-10-21T19:02:42.528Z,855.67
2022-10-21T19:05:10.816Z,881.27
2022-10-21T19:07:39.210Z,882.07
2022-10-21T19:10:09.105Z,864.93
2022-10-21T19:12:37.351Z,863.50
2022-10-21T19:15:08.712Z,867.10
2022-10-21T19:17:37.876Z,885.30
2022-10-21T19:20:07.368Z,873.10
2022-10-21T19:22:35.504Z,871.50
2022-10-21T19:25:03.679Z,912.03
2022-10-21T19:27:33.303Z,865.57
2022-10-21T19:30:01.377Z,857.60
2022-10-21T19:32:31.027Z,868.47
2022-10-21T19:34:59.085Z,909.70
2022-10-21T19:37:27.134Z,883.43
2022-10-21T19:39:55.213Z,892.67
2022-10-21T19:42:23.409Z,868.20
2022-10-21T19:44:52.889Z,879.70
2022-10-21T19:47:20.943Z,851.40
2022-10-21T19:49:49.301Z,882.60
2022-10-21T19:52:17.425Z,881.50
2022-10-21T19:54:49.273Z,860.23
2022-10-21T19:57:17.496Z,868.80
2022-10-21T19:59:49.045Z,890.67
2022-10-21T20:02:28.429Z,890.90
2022-10-21T20:04:56.736Z,863.00
2022-10-21T20:07:25.045Z,859.03
2022-10-21T20:09:53.225Z,878.90
2022-10-21T20:12:21.397Z,890.00
2022-10-21T20:19:09.731Z,888.43
2022-10-21T20:21:38.460Z,894.47
2022-10-21T20:24:07.478Z,892.63
2022-10-21T20:26:35.951Z,912.67
2022-10-21T20:29:04.425Z,892.20
2022-10-21T20:31:32.777Z,881.27
2022-10-21T20:34:00.992Z,895.20
2022-10-21T20:36:33.435Z,889.60
2022-10-21T20:39:10.371Z,885.50
2022-10-21T20:41:38.678Z,858.27
2022-10-21T20:44:09.132Z,893.47
2022-10-21T20:46:37.379Z,873.43
2022-10-21T20:49:06.712Z,873.13
2022-10-21T20:51:37.938Z,886.80
2022-10-21T20:54:07.723Z,890.20
2022-10-21T20:56:38.235Z,896.03
2022-10-21T20:59:07.068Z,888.43
2022-10-21T21:01:37.455Z,877.43
2022-10-21T21:04:08.220Z,899.70
2022-10-21T21:06:40.295Z,896.87
2022-10-21T21:09:33.092Z,896.07
2022-10-21T21:11:56.699Z,876.10
2022-10-21T21:14:24.839Z,917.60
2022-10-21T21:16:52.883Z,894.27
2022-10-21T21:19:20.963Z,900.77
2022-10-21T21:21:53.444Z,878.60
2022-10-21T21:24:21.637Z,888.47
2022-10-21T21:26:49.749Z,903.27
2022-10-21T21:29:17.791Z,879.03
2022-10-21T21:31:45.960Z,876.73
2022-10-21T21:34:14.302Z,897.27
2022-10-21T21:36:42.507Z,896.97
2022-10-21T21:41:46.465Z,928.70
2022-10-21T21:44:14.679Z,917.33
2022-10-21T21:46:42.828Z,909.67
2022-10-21T21:49:10.863Z,895.17
2022-10-21T21:51:39.028Z,858.40
2022-10-21T21:54:08.465Z,873.77
2022-10-21T21:56:37.899Z,911.57
2022-10-21T21:59:06.104Z,884.47
2022-10-21T22:01:34.259Z,897.97
2022-10-21T22:04:03.672Z,889.77
2022-10-21T22:06:35.790Z,892.07
2022-10-21T22:09:10.160Z,895.67
2022-10-21T22:11:40.276Z,895.60
2022-10-21T22:14:08.476Z,877.80
2022-10-21T22:16:36.812Z,901.03
2022-10-21T22:19:06.138Z,877.77
2022-10-21T22:21:34.248Z,891.50
2022-10-21T22:24:02.325Z,891.33
2022-10-21T22:26:32.339Z,906.43
2022-10-21T22:29:01.777Z,875.30
2022-10-21T22:31:30.890Z,892.20
2022-10-21T22:34:00.842Z,878.10
2022-10-21T22:36:29.074Z,924.73
2022-10-21T22:38:57.155Z,884.47
2022-10-21T22:41:25.250Z,911.67
2022-10-21T22:43:53.392Z,884.43
2022-10-21T22:46:34.288Z,896.30
2022-10-21T22:49:03.802Z,888.43
2022-10-21T22:51:32.003Z,883.07
2022-10-21T22:54:01.150Z,899.77
2022-10-21T22:56:29.533Z,919.67
2022-10-21T22:58:58.247Z,893.60
2022-10-21T23:01:30.426Z,893.17
2022-10-21T23:04:02.496Z,913.90
2022-10-21T23:06:30.877Z,891.97
2022-10-21T23:08:59.154Z,913.33
2022-10-21T23:11:27.325Z,892.50
2022-10-21T23:14:02.865Z,881.63
2022-10-21T23:16:33.472Z,882.83
2022-10-21T23:19:01.591Z,892.23
2022-10-21T23:21:29.693Z,899.03
2022-10-21T23:23:57.770Z,889.07
2022-10-21T23:26:25.940Z,927.50
2022-10-21T23:28:54.081Z,886.17
2022-10-21T23:31:22.722Z,887.43
2022-10-21T23:33:55.190Z,897.77
2022-10-21T23:36:23.266Z,901.20
2022-10-21T23:38:55.259Z,921.50
2022-10-21T23:41:23.871Z,895.63
2022-10-21T23:43:51.951Z,885.43
2022-10-21T23:46:20.278Z,893.17
2022-10-21T23:48:48.562Z,903.93
2022-10-21T23:51:21.629Z,896.93
2022-10-21T23:53:49.782Z,887.83
2022-10-21T23:56:17.882Z,917.27
2022-10-21T23:58:45.874Z,867.07
